< < Back
Terminal Aerodrome Forecast


Current Version              Previous Versions:   1  2  3  4  5  6  7  8  9  

Terminal Aerodrome Forecast

217
FTUS44 KMRX 012325
TAFCHA
TAF
KCHA 012325Z 0200/0224 21008KT P6SM VCTS SCT040CB BKN080
     FM020200 00000KT P6SM SCT050 OVC200
     FM020900 VRB03KT P6SM SCT015 BKN200
     FM021500 19008KT P6SM SCT050 BKN100
     FM022100 20010KT P6SM VCTS SCT050CB BKN070=



Latest METAR

148
SAUS80 KWBC 020800 RRA
MTRCHA
METAR KCHA 020753Z AUTO 00000KT 10SM CLR 18/16 A3000 RMK AO2 SLP153
T01780156


USA.gov is the U.S. government's official web portal to all federal, state and local government web resources and services.